TimeCDT,TemperatureF,Dew PointF,Humidity,Sea Level PressureIn,VisibilityMPH,Wind Direction,Wind SpeedMPH,Gust SpeedMPH,PrecipitationIn,Events,Conditions,WindDirDegrees,DateUTC
12:55 AM,72.0,70.0,93,29.75,7.0,NW,3.5,-,N/A,,Mostly Cloudy,310,2013-06-21 05:55:00
1:55 AM,70.0,69.1,97,29.75,6.0,Calm,Calm,-,N/A,,Clear,0,2013-06-21 06:55:00
2:55 AM,73.0,69.1,87,29.77,9.0,NNE,9.2,-,N/A,,Clear,30,2013-06-21 07:55:00
3:55 AM,71.1,68.0,90,29.78,10.0,ENE,16.1,25.3,N/A,,Clear,60,2013-06-21 08:55:00
4:55 AM,68.0,64.9,90,29.81,10.0,East,11.5,-,N/A,,Clear,80,2013-06-21 09:55:00
5:55 AM,66.9,64.0,90,29.80,10.0,East,10.4,-,N/A,,Clear,90,2013-06-21 10:55:00
6:55 AM,66.9,63.0,87,29.78,10.0,East,13.8,20.7,N/A,,Clear,80,2013-06-21 11:55:00
7:55 AM,69.1,64.0,84,29.77,10.0,ESE,10.4,-,N/A,,Clear,120,2013-06-21 12:55:00
8:55 AM,73.9,64.9,73,29.77,10.0,ESE,11.5,-,N/A,,Clear,110,2013-06-21 13:55:00
9:51 AM,78.8,66.2,65,29.78,10.0,ESE,8.1,-,N/A,Thunderstorm,Clear,110,2013-06-21 14:51:00
9:55 AM,79.0,66.9,66,29.75,10.0,East,8.1,-,N/A,Thunderstorm,Clear,100,2013-06-21 14:55:00
10:06 AM,78.8,66.2,65,29.77,10.0,East,9.2,-,N/A,,Clear,90,2013-06-21 15:06:00
10:55 AM,84.0,72.0,67,29.75,10.0,ESE,13.8,21.9,N/A,,Clear,110,2013-06-21 15:55:00
11:55 AM,84.9,73.0,67,29.75,10.0,ESE,13.8,20.7,N/A,,Partly Cloudy,120,2013-06-21 16:55:00
12:44 PM,87.8,73.4,62,29.77,10.0,SE,12.7,23.0,N/A,Thunderstorm,Partly Cloudy,130,2013-06-21 17:44:00
12:55 PM,86.0,73.9,67,29.74,10.0,SE,11.5,20.7,N/A,,Mostly Cloudy,130,2013-06-21 17:55:00
1:55 PM,84.0,72.0,67,29.71,10.0,SE,5.8,-,N/A,,Overcast,130,2013-06-21 18:55:00
2:05 PM,84.2,71.6,66,29.74,10.0,SSE,3.5,-,N/A,Thunderstorm,Overcast,150,2013-06-21 19:05:00
2:37 PM,71.6,64.4,78,29.84,5.0,WNW,49.5,71.3,N/A,Thunderstorm,Unknown,290,2013-06-21 19:37:00
2:39 PM,66.2,62.6,88,29.86,1.2,WNW,49.5,71.3,0.00,Rain-Thunderstorm,Light Thunderstorms and Rain,300,2013-06-21 19:39:00
2:42 PM,62.6,62.6,100,29.86,0.5,NW,43.7,71.3,0.00,Fog-Rain-Thunderstorm,Heavy Thunderstorms and Rain,310,2013-06-21 19:42:00
2:48 PM,62.6,62.6,100,29.86,0.2,NW,59.8,74.8,0.24,Fog-Rain-Thunderstorm,Heavy Thunderstorms and Rain,310,2013-06-21 19:48:00
2:55 PM,62.1,62.1,100,29.82,0.5,NNW,66.7,87.5,0.28,Fog-Rain-Thunderstorm,Heavy Thunderstorms and Rain,330,2013-06-21 19:55:00
3:07 PM,60.8,60.8,100,29.82,2.0,NNW,39.1,73.6,0.08,Rain-Thunderstorm,Light Thunderstorms and Rain,340,2013-06-21 20:07:00
3:12 PM,60.8,60.8,100,29.78,3.0,North,51.8,63.3,0.09,Rain-Thunderstorm,Thunderstorms and Rain,360,2013-06-21 20:12:00
3:26 PM,60.8,60.8,100,29.81,10.0,North,28.8,43.7,0.11,Rain,Light Rain,10,2013-06-21 20:26:00
3:55 PM,64.0,59.0,84,29.76,10.0,NNE,24.2,39.1,0.11,,Clear,30,2013-06-21 20:55:00
4:55 PM,66.9,62.1,84,29.76,10.0,ENE,23.0,31.1,N/A,,Clear,60,2013-06-21 21:55:00
5:55 PM,71.1,60.1,68,29.78,10.0,East,17.3,24.2,N/A,,Mostly Cloudy,90,2013-06-21 22:55:00
6:55 PM,72.0,60.1,66,29.81,10.0,East,11.5,-,N/A,,Mostly Cloudy,100,2013-06-21 23:55:00
7:55 PM,72.0,60.1,66,29.79,10.0,East,15.0,26.5,N/A,,Clear,100,2013-06-22 00:55:00
8:55 PM,69.1,59.0,70,29.81,10.0,East,10.4,-,N/A,,Clear,90,2013-06-22 01:55:00
9:55 PM,64.9,60.1,84,29.82,10.0,NNE,4.6,-,N/A,,Clear,30,2013-06-22 02:55:00
10:55 PM,66.0,61.0,84,29.83,10.0,North,5.8,-,N/A,,Scattered Clouds,350,2013-06-22 03:55:00
11:55 PM,64.9,61.0,87,29.83,10.0,NNW,15.0,-,N/A,,Overcast,330,2013-06-22 04:55:00